sensor_id;sensor_type;location;lat;lon;timestamp;temperature;humidity
19728;DHT22;10015;52.530;13.390;2023-08-24T00:00:57;23.30;99.90
19728;DHT22;10015;52.530;13.390;2023-08-24T00:03:23;23.30;99.90
19728;DHT22;10015;52.530;13.390;2023-08-24T00:05:48;23.30;99.90
19728;DHT22;10015;52.530;13.390;2023-08-24T00:08:14;23.30;99.90
19728;DHT22;10015;52.530;13.390;2023-08-24T00:10:43;23.30;99.90
19728;DHT22;10015;52.530;13.390;2023-08-24T00:13:12;23.30;99.90
19728;DHT22;10015;52.530;13.390;2023-08-24T00:15:38;23.30;99.90
19728;DHT22;10015;52.530;13.390;2023-08-24T00:18:05;23.20;99.90
19728;DHT22;10015;52.530;13.390;2023-08-24T00:20:32;23.20;99.90
19728;DHT22;10015;52.530;13.390;2023-08-24T00:23:00;23.20;99.90
19728;DHT22;10015;52.530;13.390;2023-08-24T00:25:26;23.20;99.90
19728;DHT22;10015;52.530;13.390;2023-08-24T00:27:56;23.20;99.90
19728;DHT22;10015;52.530;13.390;2023-08-24T00:30:24;23.10;99.90
19728;DHT22;10015;52.530;13.390;2023-08-24T00:32:50;23.00;99.90
19728;DHT22;10015;52.530;13.390;2023-08-24T00:35:16;23.00;99.90
19728;DHT22;10015;52.530;13.390;2023-08-24T00:37:42;22.90;99.90
19728;DHT22;10015;52.530;13.390;2023-08-24T00:40:08;22.80;99.90
19728;DHT22;10015;52.530;13.390;2023-08-24T00:42:42;22.80;99.90
19728;DHT22;10015;52.530;13.390;2023-08-24T00:45:13;22.80;99.90
19728;DHT22;10015;52.530;13.390;2023-08-24T00:47:44;22.70;99.90
19728;DHT22;10015;52.530;13.390;2023-08-24T00:50:10;22.70;99.90
19728;DHT22;10015;52.530;13.390;2023-08-24T00:52:41;22.70;99.90
19728;DHT22;10015;52.530;13.390;2023-08-24T00:55:08;22.70;99.90
19728;DHT22;10015;52.530;13.390;2023-08-24T00:57:35;22.60;99.90
19728;DHT22;10015;52.530;13.390;2023-08-24T01:00:04;22.60;99.90
19728;DHT22;10015;52.530;13.390;2023-08-24T01:02:39;22.60;99.90
19728;DHT22;10015;52.530;13.390;2023-08-24T01:05:05;22.60;99.90
19728;DHT22;10015;52.530;13.390;2023-08-24T01:07:37;22.60;99.90
19728;DHT22;10015;52.530;13.390;2023-08-24T01:10:05;22.50;99.90
19728;DHT22;10015;52.530;13.390;2023-08-24T01:13:10;22.50;99.90
19728;DHT22;10015;52.530;13.390;2023-08-24T01:18:10;22.40;99.90
19728;DHT22;10015;52.530;13.390;2023-08-24T01:20:40;22.40;99.90
19728;DHT22;10015;52.530;13.390;2023-08-24T01:26:18;22.40;99.90
19728;DHT22;10015;52.530;13.390;2023-08-24T01:28:46;22.60;99.90
19728;DHT22;10015;52.530;13.390;2023-08-24T01:31:15;22.60;99.90
19728;DHT22;10015;52.530;13.390;2023-08-24T01:33:42;22.60;99.90
19728;DHT22;10015;52.530;13.390;2023-08-24T01:36:09;22.60;99.90
19728;DHT22;10015;52.530;13.390;2023-08-24T01:38:37;22.50;99.90
19728;DHT22;10015;52.530;13.390;2023-08-24T01:43:36;22.60;99.90
19728;DHT22;10015;52.530;13.390;2023-08-24T01:46:07;22.60;99.90
19728;DHT22;10015;52.530;13.390;2023-08-24T01:48:33;22.60;99.90
19728;DHT22;10015;52.530;13.390;2023-08-24T01:51:01;22.50;99.90
19728;DHT22;10015;52.530;13.390;2023-08-24T01:53:29;22.50;99.90
19728;DHT22;10015;52.530;13.390;2023-08-24T01:55:56;22.60;99.90
19728;DHT22;10015;52.530;13.390;2023-08-24T01:58:22;22.50;99.90
19728;DHT22;10015;52.530;13.390;2023-08-24T02:00:48;22.60;99.90
19728;DHT22;10015;52.530;13.390;2023-08-24T02:03:14;22.60;99.90
19728;DHT22;10015;52.530;13.390;2023-08-24T02:05:40;22.60;99.90
19728;DHT22;10015;52.530;13.390;2023-08-24T02:08:06;22.70;99.90
19728;DHT22;10015;52.530;13.390;2023-08-24T02:10:31;22.80;99.90
19728;DHT22;10015;52.530;13.390;2023-08-24T02:12:57;22.80;99.90
19728;DHT22;10015;52.530;13.390;2023-08-24T02:15:23;22.80;99.90
19728;DHT22;10015;52.530;13.390;2023-08-24T02:17:50;22.80;99.90
19728;DHT22;10015;52.530;13.390;2023-08-24T02:20:16;22.80;99.90
19728;DHT22;10015;52.530;13.390;2023-08-24T02:22:42;22.80;99.90
19728;DHT22;10015;52.530;13.390;2023-08-24T02:25:09;22.90;99.90
19728;DHT22;10015;52.530;13.390;2023-08-24T02:27:35;22.90;99.90
19728;DHT22;10015;52.530;13.390;2023-08-24T02:30:01;22.90;99.90
19728;DHT22;10015;52.530;13.390;2023-08-24T02:32:28;22.90;99.90
19728;DHT22;10015;52.530;13.390;2023-08-24T02:34:54;23.00;99.90
19728;DHT22;10015;52.530;13.390;2023-08-24T02:37:21;23.00;99.90
19728;DHT22;10015;52.530;13.390;2023-08-24T02:39:47;23.00;99.90
19728;DHT22;10015;52.530;13.390;2023-08-24T02:42:13;23.00;99.90
19728;DHT22;10015;52.530;13.390;2023-08-24T02:44:38;23.00;99.90
19728;DHT22;10015;52.530;13.390;2023-08-24T02:47:04;22.80;99.90
19728;DHT22;10015;52.530;13.390;2023-08-24T02:49:30;22.90;99.90
19728;DHT22;10015;52.530;13.390;2023-08-24T02:51:56;23.00;99.90
19728;DHT22;10015;52.530;13.390;2023-08-24T02:54:22;23.00;99.90
19728;DHT22;10015;52.530;13.390;2023-08-24T02:56:48;23.00;99.90
19728;DHT22;10015;52.530;13.390;2023-08-24T02:59:14;23.00;99.90
19728;DHT22;10015;52.530;13.390;2023-08-24T03:01:40;22.90;99.90
19728;DHT22;10015;52.530;13.390;2023-08-24T03:04:07;23.00;99.90
19728;DHT22;10015;52.530;13.390;2023-08-24T03:06:33;23.00;99.90
19728;DHT22;10015;52.530;13.390;2023-08-24T03:09:00;23.00;99.90
19728;DHT22;10015;52.530;13.390;2023-08-24T03:11:27;23.00;99.90
19728;DHT22;10015;52.530;13.390;2023-08-24T03:13:53;23.00;99.90
19728;DHT22;10015;52.530;13.390;2023-08-24T03:16:20;23.00;99.90
19728;DHT22;10015;52.530;13.390;2023-08-24T03:18:46;23.00;99.90
19728;DHT22;10015;52.530;13.390;2023-08-24T03:21:12;23.00;99.90
19728;DHT22;10015;52.530;13.390;2023-08-24T03:23:38;23.10;99.90
19728;DHT22;10015;52.530;13.390;2023-08-24T03:26:06;23.20;99.90
19728;DHT22;10015;52.530;13.390;2023-08-24T03:28:32;23.10;99.90
19728;DHT22;10015;52.530;13.390;2023-08-24T03:31:00;23.10;99.90
19728;DHT22;10015;52.530;13.390;2023-08-24T03:33:27;23.00;99.90
19728;DHT22;10015;52.530;13.390;2023-08-24T03:35:54;22.90;99.90
19728;DHT22;10015;52.530;13.390;2023-08-24T03:38:20;22.80;99.90
19728;DHT22;10015;52.530;13.390;2023-08-24T03:40:46;22.70;99.90
19728;DHT22;10015;52.530;13.390;2023-08-24T03:43:12;22.70;99.90
19728;DHT22;10015;52.530;13.390;2023-08-24T03:45:39;22.70;99.90
19728;DHT22;10015;52.530;13.390;2023-08-24T03:48:05;22.70;99.90
19728;DHT22;10015;52.530;13.390;2023-08-24T03:50:31;22.70;99.90
19728;DHT22;10015;52.530;13.390;2023-08-24T03:52:57;22.70;99.90
19728;DHT22;10015;52.530;13.390;2023-08-24T03:55:23;22.60;99.90
19728;DHT22;10015;52.530;13.390;2023-08-24T03:57:49;22.40;99.90
19728;DHT22;10015;52.530;13.390;2023-08-24T04:00:16;22.30;99.90
19728;DHT22;10015;52.530;13.390;2023-08-24T04:02:43;22.30;99.90
19728;DHT22;10015;52.530;13.390;2023-08-24T04:05:13;22.20;99.90
19728;DHT22;10015;52.530;13.390;2023-08-24T04:07:39;22.20;99.90
19728;DHT22;10015;52.530;13.390;2023-08-24T04:10:07;22.20;99.90
19728;DHT22;10015;52.530;13.390;2023-08-24T04:12:35;22.20;99.90
19728;DHT22;10015;52.530;13.390;2023-08-24T04:15:01;22.30;99.90
19728;DHT22;10015;52.530;13.390;2023-08-24T04:17:29;22.40;99.90
19728;DHT22;10015;52.530;13.390;2023-08-24T04:19:55;22.40;99.90
19728;DHT22;10015;52.530;13.390;2023-08-24T04:22:21;22.40;99.90
19728;DHT22;10015;52.530;13.390;2023-08-24T04:24:47;22.50;99.90
19728;DHT22;10015;52.530;13.390;2023-08-24T04:27:13;22.50;99.90
19728;DHT22;10015;52.530;13.390;2023-08-24T04:29:38;22.50;99.90
19728;DHT22;10015;52.530;13.390;2023-08-24T04:32:05;22.50;99.90
19728;DHT22;10015;52.530;13.390;2023-08-24T04:34:31;22.50;99.90
19728;DHT22;10015;52.530;13.390;2023-08-24T04:36:57;22.50;99.90
19728;DHT22;10015;52.530;13.390;2023-08-24T04:39:23;22.50;99.90
19728;DHT22;10015;52.530;13.390;2023-08-24T04:41:50;22.40;99.90
19728;DHT22;10015;52.530;13.390;2023-08-24T04:44:16;22.50;99.90
19728;DHT22;10015;52.530;13.390;2023-08-24T04:46:42;22.50;99.90
19728;DHT22;10015;52.530;13.390;2023-08-24T04:49:08;22.50;99.90
19728;DHT22;10015;52.530;13.390;2023-08-24T04:51:34;22.40;99.90
19728;DHT22;10015;52.530;13.390;2023-08-24T04:53:59;22.40;99.90
19728;DHT22;10015;52.530;13.390;2023-08-24T04:56:25;22.50;99.90
19728;DHT22;10015;52.530;13.390;2023-08-24T04:58:55;22.30;99.90
19728;DHT22;10015;52.530;13.390;2023-08-24T05:01:23;22.40;99.90
19728;DHT22;10015;52.530;13.390;2023-08-24T05:03:51;22.40;99.90
19728;DHT22;10015;52.530;13.390;2023-08-24T05:06:21;22.40;99.90
19728;DHT22;10015;52.530;13.390;2023-08-24T05:08:47;22.40;99.90
19728;DHT22;10015;52.530;13.390;2023-08-24T05:11:17;22.30;99.90
19728;DHT22;10015;52.530;13.390;2023-08-24T05:13:43;22.40;99.90
19728;DHT22;10015;52.530;13.390;2023-08-24T05:16:10;22.60;99.90
19728;DHT22;10015;52.530;13.390;2023-08-24T05:18:36;22.60;99.90
19728;DHT22;10015;52.530;13.390;2023-08-24T05:21:03;22.70;99.90
19728;DHT22;10015;52.530;13.390;2023-08-24T05:23:32;22.70;99.90
19728;DHT22;10015;52.530;13.390;2023-08-24T05:25:59;22.70;99.90
19728;DHT22;10015;52.530;13.390;2023-08-24T05:28:26;22.70;99.90
19728;DHT22;10015;52.530;13.390;2023-08-24T05:30:53;22.80;99.90
19728;DHT22;10015;52.530;13.390;2023-08-24T05:33:20;23.00;99.90
19728;DHT22;10015;52.530;13.390;2023-08-24T05:35:50;23.20;99.90
19728;DHT22;10015;52.530;13.390;2023-08-24T05:38:16;23.50;99.90
19728;DHT22;10015;52.530;13.390;2023-08-24T05:40:43;23.70;99.90
19728;DHT22;10015;52.530;13.390;2023-08-24T05:43:09;24.00;99.90
19728;DHT22;10015;52.530;13.390;2023-08-24T05:45:36;24.30;99.90
19728;DHT22;10015;52.530;13.390;2023-08-24T05:48:02;24.50;99.90
19728;DHT22;10015;52.530;13.390;2023-08-24T05:50:28;24.80;99.90
19728;DHT22;10015;52.530;13.390;2023-08-24T05:52:54;25.10;99.90
19728;DHT22;10015;52.530;13.390;2023-08-24T05:55:20;25.30;99.90
19728;DHT22;10015;52.530;13.390;2023-08-24T05:57:46;25.60;99.90
19728;DHT22;10015;52.530;13.390;2023-08-24T06:00:13;25.60;99.90
19728;DHT22;10015;52.530;13.390;2023-08-24T06:02:41;25.70;99.90
19728;DHT22;10015;52.530;13.390;2023-08-24T06:05:08;25.80;99.90
19728;DHT22;10015;52.530;13.390;2023-08-24T06:07:35;26.10;99.90
19728;DHT22;10015;52.530;13.390;2023-08-24T06:10:01;26.40;99.90
19728;DHT22;10015;52.530;13.390;2023-08-24T06:12:27;26.50;99.90
19728;DHT22;10015;52.530;13.390;2023-08-24T06:14:53;26.70;99.90
19728;DHT22;10015;52.530;13.390;2023-08-24T06:17:20;27.00;99.90
19728;DHT22;10015;52.530;13.390;2023-08-24T06:19:46;27.20;99.90
19728;DHT22;10015;52.530;13.390;2023-08-24T06:22:12;27.50;99.90
19728;DHT22;10015;52.530;13.390;2023-08-24T06:24:38;27.60;99.90
19728;DHT22;10015;52.530;13.390;2023-08-24T06:27:04;27.80;99.90
19728;DHT22;10015;52.530;13.390;2023-08-24T06:29:30;28.00;99.90
19728;DHT22;10015;52.530;13.390;2023-08-24T06:31:56;28.20;99.90
19728;DHT22;10015;52.530;13.390;2023-08-24T06:34:22;28.40;99.90
19728;DHT22;10015;52.530;13.390;2023-08-24T06:36:50;28.50;99.90
19728;DHT22;10015;52.530;13.390;2023-08-24T06:39:16;28.50;99.90
19728;DHT22;10015;52.530;13.390;2023-08-24T06:41:42;28.70;99.90
19728;DHT22;10015;52.530;13.390;2023-08-24T06:44:08;28.80;99.90
19728;DHT22;10015;52.530;13.390;2023-08-24T06:46:34;29.00;99.90
19728;DHT22;10015;52.530;13.390;2023-08-24T06:49:00;29.10;99.90
19728;DHT22;10015;52.530;13.390;2023-08-24T06:51:26;29.20;99.90
19728;DHT22;10015;52.530;13.390;2023-08-24T06:53:53;29.40;99.90
19728;DHT22;10015;52.530;13.390;2023-08-24T06:56:19;29.60;99.90
19728;DHT22;10015;52.530;13.390;2023-08-24T06:58:47;29.80;99.90
19728;DHT22;10015;52.530;13.390;2023-08-24T07:01:13;29.90;99.90
19728;DHT22;10015;52.530;13.390;2023-08-24T07:03:39;30.00;99.90
19728;DHT22;10015;52.530;13.390;2023-08-24T07:06:06;30.10;99.90
19728;DHT22;10015;52.530;13.390;2023-08-24T07:08:34;30.10;99.90
19728;DHT22;10015;52.530;13.390;2023-08-24T07:11:01;30.20;99.90
19728;DHT22;10015;52.530;13.390;2023-08-24T07:13:27;30.30;99.90
19728;DHT22;10015;52.530;13.390;2023-08-24T07:15:53;30.40;99.90
19728;DHT22;10015;52.530;13.390;2023-08-24T07:18:21;30.60;99.90
19728;DHT22;10015;52.530;13.390;2023-08-24T07:20:47;30.70;99.90
19728;DHT22;10015;52.530;13.390;2023-08-24T07:23:13;30.90;99.90
19728;DHT22;10015;52.530;13.390;2023-08-24T07:25:39;31.00;99.90
19728;DHT22;10015;52.530;13.390;2023-08-24T07:28:05;31.10;99.90
19728;DHT22;10015;52.530;13.390;2023-08-24T07:30:31;31.20;99.90
19728;DHT22;10015;52.530;13.390;2023-08-24T07:33:01;31.30;99.90
19728;DHT22;10015;52.530;13.390;2023-08-24T07:35:28;31.40;99.90
19728;DHT22;10015;52.530;13.390;2023-08-24T07:37:56;31.40;99.90
19728;DHT22;10015;52.530;13.390;2023-08-24T07:40:22;31.50;99.90
19728;DHT22;10015;52.530;13.390;2023-08-24T07:42:50;31.60;99.90
19728;DHT22;10015;52.530;13.390;2023-08-24T07:45:19;31.60;99.90
19728;DHT22;10015;52.530;13.390;2023-08-24T07:47:45;31.70;99.90
19728;DHT22;10015;52.530;13.390;2023-08-24T07:50:11;31.70;99.90
19728;DHT22;10015;52.530;13.390;2023-08-24T07:52:40;31.60;99.90
19728;DHT22;10015;52.530;13.390;2023-08-24T07:55:07;31.60;99.90
19728;DHT22;10015;52.530;13.390;2023-08-24T07:57:34;31.70;99.90
19728;DHT22;10015;52.530;13.390;2023-08-24T08:00:00;31.80;99.90
19728;DHT22;10015;52.530;13.390;2023-08-24T08:02:38;32.00;99.90
19728;DHT22;10015;52.530;13.390;2023-08-24T08:05:05;32.20;99.90
19728;DHT22;10015;52.530;13.390;2023-08-24T08:07:35;32.40;99.90
19728;DHT22;10015;52.530;13.390;2023-08-24T08:10:01;32.50;99.90
19728;DHT22;10015;52.530;13.390;2023-08-24T08:12:27;32.50;99.90
19728;DHT22;10015;52.530;13.390;2023-08-24T08:14:55;32.40;99.90
19728;DHT22;10015;52.530;13.390;2023-08-24T08:17:20;32.40;99.90
19728;DHT22;10015;52.530;13.390;2023-08-24T08:19:46;32.30;99.90
19728;DHT22;10015;52.530;13.390;2023-08-24T08:22:12;32.20;99.90
19728;DHT22;10015;52.530;13.390;2023-08-24T08:24:38;32.10;99.90
19728;DHT22;10015;52.530;13.390;2023-08-24T08:27:04;32.00;99.90
19728;DHT22;10015;52.530;13.390;2023-08-24T08:29:30;31.70;99.90
19728;DHT22;10015;52.530;13.390;2023-08-24T08:31:56;31.40;99.90
19728;DHT22;10015;52.530;13.390;2023-08-24T08:34:22;31.20;99.90
19728;DHT22;10015;52.530;13.390;2023-08-24T08:36:48;30.90;99.90
19728;DHT22;10015;52.530;13.390;2023-08-24T08:39:14;30.60;99.90
19728;DHT22;10015;52.530;13.390;2023-08-24T08:41:43;30.40;99.90
19728;DHT22;10015;52.530;13.390;2023-08-24T08:44:13;30.10;99.90
19728;DHT22;10015;52.530;13.390;2023-08-24T08:46:43;29.80;99.90
19728;DHT22;10015;52.530;13.390;2023-08-24T08:49:09;29.60;99.90
19728;DHT22;10015;52.530;13.390;2023-08-24T08:51:36;29.40;99.90
19728;DHT22;10015;52.530;13.390;2023-08-24T08:54:03;29.10;99.90
19728;DHT22;10015;52.530;13.390;2023-08-24T08:56:34;28.80;99.90
19728;DHT22;10015;52.530;13.390;2023-08-24T08:59:02;28.60;99.90
19728;DHT22;10015;52.530;13.390;2023-08-24T09:01:30;28.40;99.90
19728;DHT22;10015;52.530;13.390;2023-08-24T09:03:57;28.30;99.90
19728;DHT22;10015;52.530;13.390;2023-08-24T09:06:23;28.10;99.90
19728;DHT22;10015;52.530;13.390;2023-08-24T09:08:50;28.00;99.90
19728;DHT22;10015;52.530;13.390;2023-08-24T09:14:42;28.10;99.90
19728;DHT22;10015;52.530;13.390;2023-08-24T09:17:08;28.40;99.90
19728;DHT22;10015;52.530;13.390;2023-08-24T09:19:34;28.90;99.90
19728;DHT22;10015;52.530;13.390;2023-08-24T09:22:04;29.20;99.90
19728;DHT22;10015;52.530;13.390;2023-08-24T09:24:31;29.40;99.90
19728;DHT22;10015;52.530;13.390;2023-08-24T09:27:05;29.30;99.90
19728;DHT22;10015;52.530;13.390;2023-08-24T09:29:39;29.10;99.90
19728;DHT22;10015;52.530;13.390;2023-08-24T09:32:08;29.10;99.90
19728;DHT22;10015;52.530;13.390;2023-08-24T09:34:36;29.10;99.90
19728;DHT22;10015;52.530;13.390;2023-08-24T09:37:02;29.20;99.90
19728;DHT22;10015;52.530;13.390;2023-08-24T09:39:30;29.30;99.90
19728;DHT22;10015;52.530;13.390;2023-08-24T09:42:00;29.50;99.90
19728;DHT22;10015;52.530;13.390;2023-08-24T09:44:29;29.70;99.90
19728;DHT22;10015;52.530;13.390;2023-08-24T09:46:55;29.90;99.90
19728;DHT22;10015;52.530;13.390;2023-08-24T09:49:21;30.20;99.90
19728;DHT22;10015;52.530;13.390;2023-08-24T09:51:48;30.50;99.90
19728;DHT22;10015;52.530;13.390;2023-08-24T09:54:16;30.70;99.90
19728;DHT22;10015;52.530;13.390;2023-08-24T09:56:43;30.90;99.90
19728;DHT22;10015;52.530;13.390;2023-08-24T09:59:14;31.10;99.90
19728;DHT22;10015;52.530;13.390;2023-08-24T10:01:45;31.20;99.90
19728;DHT22;10015;52.530;13.390;2023-08-24T10:04:23;31.50;99.90
19728;DHT22;10015;52.530;13.390;2023-08-24T10:06:55;31.80;99.90
19728;DHT22;10015;52.530;13.390;2023-08-24T10:09:32;32.00;99.90
19728;DHT22;10015;52.530;13.390;2023-08-24T10:12:04;32.20;99.90
19728;DHT22;10015;52.530;13.390;2023-08-24T10:14:53;32.40;99.90
19728;DHT22;10015;52.530;13.390;2023-08-24T10:17:22;32.50;99.90
19728;DHT22;10015;52.530;13.390;2023-08-24T10:19:53;32.50;99.90
19728;DHT22;10015;52.530;13.390;2023-08-24T10:22:20;32.40;99.90
19728;DHT22;10015;52.530;13.390;2023-08-24T10:24:47;32.40;99.90
19728;DHT22;10015;52.530;13.390;2023-08-24T10:27:14;32.00;99.90
19728;DHT22;10015;52.530;13.390;2023-08-24T10:29:40;31.80;99.90
19728;DHT22;10015;52.530;13.390;2023-08-24T10:32:07;32.00;99.90
19728;DHT22;10015;52.530;13.390;2023-08-24T10:34:34;31.90;99.90
19728;DHT22;10015;52.530;13.390;2023-08-24T10:37:10;32.10;99.90
19728;DHT22;10015;52.530;13.390;2023-08-24T10:39:37;32.30;99.90
19728;DHT22;10015;52.530;13.390;2023-08-24T10:42:04;32.40;99.90
19728;DHT22;10015;52.530;13.390;2023-08-24T10:44:37;32.50;99.90
19728;DHT22;10015;52.530;13.390;2023-08-24T10:47:20;32.30;99.90
19728;DHT22;10015;52.530;13.390;2023-08-24T10:52:22;32.10;99.90
19728;DHT22;10015;52.530;13.390;2023-08-24T10:54:50;32.20;99.90
19728;DHT22;10015;52.530;13.390;2023-08-24T10:57:21;32.30;99.90
19728;DHT22;10015;52.530;13.390;2023-08-24T11:00:02;32.20;99.90
19728;DHT22;10015;52.530;13.390;2023-08-24T11:05:18;32.40;99.90
19728;DHT22;10015;52.530;13.390;2023-08-24T11:08:04;32.20;99.60
19728;DHT22;10015;52.530;13.390;2023-08-24T11:10:48;31.80;99.90
19728;DHT22;10015;52.530;13.390;2023-08-24T11:15:44;31.90;99.90
19728;DHT22;10015;52.530;13.390;2023-08-24T11:20:53;31.90;99.90
19728;DHT22;10015;52.530;13.390;2023-08-24T11:23:21;31.90;99.90
19728;DHT22;10015;52.530;13.390;2023-08-24T11:25:50;32.00;99.90
19728;DHT22;10015;52.530;13.390;2023-08-24T11:28:21;32.00;99.90
19728;DHT22;10015;52.530;13.390;2023-08-24T11:30:47;32.00;99.90
19728;DHT22;10015;52.530;13.390;2023-08-24T11:33:13;32.10;99.90
19728;DHT22;10015;52.530;13.390;2023-08-24T11:35:46;32.00;99.90
19728;DHT22;10015;52.530;13.390;2023-08-24T11:38:12;31.90;99.90
19728;DHT22;10015;52.530;13.390;2023-08-24T11:40:39;31.90;99.90
19728;DHT22;10015;52.530;13.390;2023-08-24T11:43:05;31.90;99.90
19728;DHT22;10015;52.530;13.390;2023-08-24T11:45:33;31.80;99.90
19728;DHT22;10015;52.530;13.390;2023-08-24T11:47:59;31.90;99.90
19728;DHT22;10015;52.530;13.390;2023-08-24T11:50:27;31.90;99.90
19728;DHT22;10015;52.530;13.390;2023-08-24T11:52:54;32.00;99.90
19728;DHT22;10015;52.530;13.390;2023-08-24T11:55:23;31.90;99.90
19728;DHT22;10015;52.530;13.390;2023-08-24T11:57:50;32.00;99.90
19728;DHT22;10015;52.530;13.390;2023-08-24T12:00:19;31.90;99.90
19728;DHT22;10015;52.530;13.390;2023-08-24T12:02:46;31.90;99.90
19728;DHT22;10015;52.530;13.390;2023-08-24T12:05:25;32.00;99.90
19728;DHT22;10015;52.530;13.390;2023-08-24T12:07:53;31.90;99.90
19728;DHT22;10015;52.530;13.390;2023-08-24T12:10:20;31.80;99.90
19728;DHT22;10015;52.530;13.390;2023-08-24T12:12:47;31.80;99.90
19728;DHT22;10015;52.530;13.390;2023-08-24T12:15:18;31.70;99.90
19728;DHT22;10015;52.530;13.390;2023-08-24T12:17:46;31.80;99.90
19728;DHT22;10015;52.530;13.390;2023-08-24T12:20:18;31.60;99.90
19728;DHT22;10015;52.530;13.390;2023-08-24T12:22:44;31.60;99.90
19728;DHT22;10015;52.530;13.390;2023-08-24T12:25:14;31.60;99.90
19728;DHT22;10015;52.530;13.390;2023-08-24T12:27:42;31.60;99.90
19728;DHT22;10015;52.530;13.390;2023-08-24T12:30:10;31.40;99.90
19728;DHT22;10015;52.530;13.390;2023-08-24T12:32:47;31.30;99.90
19728;DHT22;10015;52.530;13.390;2023-08-24T12:35:14;31.40;99.90
19728;DHT22;10015;52.530;13.390;2023-08-24T12:37:41;31.40;99.90
19728;DHT22;10015;52.530;13.390;2023-08-24T12:40:07;31.50;99.90
19728;DHT22;10015;52.530;13.390;2023-08-24T12:42:34;31.50;99.90
19728;DHT22;10015;52.530;13.390;2023-08-24T12:45:00;31.50;99.90
19728;DHT22;10015;52.530;13.390;2023-08-24T12:47:26;31.50;99.90
19728;DHT22;10015;52.530;13.390;2023-08-24T12:49:52;31.60;99.90
19728;DHT22;10015;52.530;13.390;2023-08-24T12:52:21;31.60;99.90
19728;DHT22;10015;52.530;13.390;2023-08-24T12:54:48;31.50;99.90
19728;DHT22;10015;52.530;13.390;2023-08-24T12:57:13;31.20;99.90
19728;DHT22;10015;52.530;13.390;2023-08-24T12:59:40;31.20;99.90
19728;DHT22;10015;52.530;13.390;2023-08-24T13:02:06;31.10;99.90
19728;DHT22;10015;52.530;13.390;2023-08-24T13:04:31;31.00;99.90
19728;DHT22;10015;52.530;13.390;2023-08-24T13:06:59;31.20;99.90
19728;DHT22;10015;52.530;13.390;2023-08-24T13:09:24;31.20;99.90
19728;DHT22;10015;52.530;13.390;2023-08-24T13:11:51;31.40;99.90
19728;DHT22;10015;52.530;13.390;2023-08-24T13:14:17;31.40;99.90
19728;DHT22;10015;52.530;13.390;2023-08-24T13:16:43;31.40;99.90
19728;DHT22;10015;52.530;13.390;2023-08-24T13:19:09;31.40;99.90
19728;DHT22;10015;52.530;13.390;2023-08-24T13:21:35;31.40;99.90
19728;DHT22;10015;52.530;13.390;2023-08-24T13:24:01;31.20;99.90
19728;DHT22;10015;52.530;13.390;2023-08-24T13:26:27;31.20;99.90
19728;DHT22;10015;52.530;13.390;2023-08-24T13:28:52;31.30;99.90
19728;DHT22;10015;52.530;13.390;2023-08-24T13:31:18;31.40;99.90
19728;DHT22;10015;52.530;13.390;2023-08-24T13:33:45;31.40;99.90
19728;DHT22;10015;52.530;13.390;2023-08-24T13:36:11;31.40;99.90
19728;DHT22;10015;52.530;13.390;2023-08-24T13:38:37;31.20;99.90
19728;DHT22;10015;52.530;13.390;2023-08-24T13:41:03;31.10;99.90
19728;DHT22;10015;52.530;13.390;2023-08-24T13:43:32;31.00;99.90
19728;DHT22;10015;52.530;13.390;2023-08-24T13:45:57;31.00;99.90
19728;DHT22;10015;52.530;13.390;2023-08-24T13:48:23;31.20;99.90
19728;DHT22;10015;52.530;13.390;2023-08-24T13:50:53;31.10;99.90
19728;DHT22;10015;52.530;13.390;2023-08-24T13:53:19;30.90;99.90
19728;DHT22;10015;52.530;13.390;2023-08-24T13:55:45;30.80;99.90
19728;DHT22;10015;52.530;13.390;2023-08-24T13:58:11;30.70;99.90
19728;DHT22;10015;52.530;13.390;2023-08-24T14:00:37;30.70;99.90
19728;DHT22;10015;52.530;13.390;2023-08-24T14:03:03;30.70;99.90
19728;DHT22;10015;52.530;13.390;2023-08-24T14:05:30;30.80;99.90
19728;DHT22;10015;52.530;13.390;2023-08-24T14:07:56;30.90;99.90
19728;DHT22;10015;52.530;13.390;2023-08-24T14:10:22;30.80;99.90
19728;DHT22;10015;52.530;13.390;2023-08-24T14:12:48;30.70;99.90
19728;DHT22;10015;52.530;13.390;2023-08-24T14:15:14;30.70;99.90
19728;DHT22;10015;52.530;13.390;2023-08-24T14:17:40;30.90;99.90
19728;DHT22;10015;52.530;13.390;2023-08-24T14:20:06;30.70;99.90
19728;DHT22;10015;52.530;13.390;2023-08-24T14:22:34;30.70;99.90
19728;DHT22;10015;52.530;13.390;2023-08-24T14:25:00;30.60;99.90
19728;DHT22;10015;52.530;13.390;2023-08-24T14:27:26;30.60;99.90
19728;DHT22;10015;52.530;13.390;2023-08-24T14:29:52;30.60;99.90
19728;DHT22;10015;52.530;13.390;2023-08-24T14:32:18;30.70;99.90
19728;DHT22;10015;52.530;13.390;2023-08-24T14:34:44;30.80;99.90
19728;DHT22;10015;52.530;13.390;2023-08-24T14:37:10;30.70;99.90
19728;DHT22;10015;52.530;13.390;2023-08-24T14:39:36;30.60;99.90
19728;DHT22;10015;52.530;13.390;2023-08-24T14:42:02;30.70;99.90
19728;DHT22;10015;52.530;13.390;2023-08-24T14:44:28;30.70;99.90
19728;DHT22;10015;52.530;13.390;2023-08-24T14:46:54;30.70;99.90
19728;DHT22;10015;52.530;13.390;2023-08-24T14:49:20;30.70;99.90
19728;DHT22;10015;52.530;13.390;2023-08-24T14:51:46;30.60;99.90
19728;DHT22;10015;52.530;13.390;2023-08-24T14:54:12;30.50;99.80
19728;DHT22;10015;52.530;13.390;2023-08-24T14:56:41;30.40;99.90
19728;DHT22;10015;52.530;13.390;2023-08-24T14:59:07;30.40;99.90
19728;DHT22;10015;52.530;13.390;2023-08-24T15:01:33;30.30;99.90
19728;DHT22;10015;52.530;13.390;2023-08-24T15:04:00;30.40;99.90
19728;DHT22;10015;52.530;13.390;2023-08-24T15:06:26;30.40;99.90
19728;DHT22;10015;52.530;13.390;2023-08-24T15:08:52;30.50;99.90
19728;DHT22;10015;52.530;13.390;2023-08-24T15:11:18;30.50;99.90
19728;DHT22;10015;52.530;13.390;2023-08-24T15:13:44;30.40;99.90
19728;DHT22;10015;52.530;13.390;2023-08-24T15:16:10;30.40;99.90
19728;DHT22;10015;52.530;13.390;2023-08-24T15:18:36;30.40;99.90
19728;DHT22;10015;52.530;13.390;2023-08-24T15:21:02;30.50;99.90
19728;DHT22;10015;52.530;13.390;2023-08-24T15:23:30;30.60;99.90
19728;DHT22;10015;52.530;13.390;2023-08-24T15:25:58;30.50;99.90
19728;DHT22;10015;52.530;13.390;2023-08-24T15:28:36;30.50;99.90
19728;DHT22;10015;52.530;13.390;2023-08-24T15:31:03;30.10;99.90
19728;DHT22;10015;52.530;13.390;2023-08-24T15:33:45;30.10;99.90
19728;DHT22;10015;52.530;13.390;2023-08-24T15:36:11;30.10;99.90
19728;DHT22;10015;52.530;13.390;2023-08-24T15:38:37;30.10;99.90